sensor_id;sensor_type;location;lat;lon;timestamp;P1;durP1;ratioP1;P2;durP2;ratioP2
32697;SDS011;19087;51.062;3.754;2023-07-29T09:04:57;0.00;;;0.00;;
32697;SDS011;19087;51.062;3.754;2023-07-29T09:07:23;0.00;;;0.00;;
32697;SDS011;19087;51.062;3.754;2023-07-29T09:09:50;0.00;;;0.00;;
32697;SDS011;19087;51.062;3.754;2023-07-29T09:12:16;0.00;;;0.00;;
32697;SDS011;19087;51.062;3.754;2023-07-29T09:14:42;0.08;;;0.08;;
32697;SDS011;19087;51.062;3.754;2023-07-29T09:17:08;0.00;;;0.00;;
32697;SDS011;19087;51.062;3.754;2023-07-29T09:19:34;0.00;;;0.00;;
32697;SDS011;19087;51.062;3.754;2023-07-29T09:22:00;0.00;;;0.00;;
32697;SDS011;19087;51.062;3.754;2023-07-29T09:24:26;0.03;;;0.03;;
32697;SDS011;19087;51.062;3.754;2023-07-29T09:26:54;0.00;;;0.00;;
32697;SDS011;19087;51.062;3.754;2023-07-29T09:29:23;0.00;;;0.00;;
32697;SDS011;19087;51.062;3.754;2023-07-29T09:31:53;0.00;;;0.00;;
32697;SDS011;19087;51.062;3.754;2023-07-29T09:34:20;0.10;;;0.10;;
32697;SDS011;19087;51.062;3.754;2023-07-29T09:36:46;0.10;;;0.10;;
32697;SDS011;19087;51.062;3.754;2023-07-29T09:39:12;0.08;;;0.08;;
32697;SDS011;19087;51.062;3.754;2023-07-29T09:41:40;0.10;;;0.10;;
32697;SDS011;19087;51.062;3.754;2023-07-29T09:44:06;0.10;;;0.10;;
32697;SDS011;19087;51.062;3.754;2023-07-29T09:46:33;0.10;;;0.10;;
32697;SDS011;19087;51.062;3.754;2023-07-29T09:49:01;0.10;;;0.10;;
32697;SDS011;19087;51.062;3.754;2023-07-29T09:51:31;0.00;;;0.00;;
32697;SDS011;19087;51.062;3.754;2023-07-29T09:54:03;0.00;;;0.00;;
32697;SDS011;19087;51.062;3.754;2023-07-29T09:56:29;0.00;;;0.00;;
32697;SDS011;19087;51.062;3.754;2023-07-29T09:58:56;0.00;;;0.00;;
32697;SDS011;19087;51.062;3.754;2023-07-29T10:01:22;0.10;;;0.10;;
32697;SDS011;19087;51.062;3.754;2023-07-29T10:06:22;0.00;;;0.00;;
32697;SDS011;19087;51.062;3.754;2023-07-29T10:08:48;0.10;;;0.10;;
32697;SDS011;19087;51.062;3.754;2023-07-29T10:11:15;0.00;;;0.00;;
32697;SDS011;19087;51.062;3.754;2023-07-29T10:13:45;0.00;;;0.00;;
32697;SDS011;19087;51.062;3.754;2023-07-29T10:16:11;0.10;;;0.10;;
32697;SDS011;19087;51.062;3.754;2023-07-29T10:18:37;0.00;;;0.00;;
32697;SDS011;19087;51.062;3.754;2023-07-29T10:21:04;0.10;;;0.10;;
32697;SDS011;19087;51.062;3.754;2023-07-29T10:23:34;0.00;;;0.00;;
32697;SDS011;19087;51.062;3.754;2023-07-29T10:26:06;0.00;;;0.00;;
32697;SDS011;19087;51.062;3.754;2023-07-29T10:28:36;0.03;;;0.03;;
32697;SDS011;19087;51.062;3.754;2023-07-29T10:31:05;0.08;;;0.08;;
32697;SDS011;19087;51.062;3.754;2023-07-29T10:33:32;0.00;;;0.00;;
32697;SDS011;19087;51.062;3.754;2023-07-29T10:35:59;0.10;;;0.10;;
32697;SDS011;19087;51.062;3.754;2023-07-29T10:38:26;0.00;;;0.00;;
32697;SDS011;19087;51.062;3.754;2023-07-29T10:40:52;0.10;;;0.10;;
32697;SDS011;19087;51.062;3.754;2023-07-29T10:43:43;0.10;;;0.10;;
32697;SDS011;19087;51.062;3.754;2023-07-29T10:46:15;0.03;;;0.03;;
32697;SDS011;19087;51.062;3.754;2023-07-29T10:48:43;0.10;;;0.10;;
32697;SDS011;19087;51.062;3.754;2023-07-29T10:54:03;0.10;;;0.10;;
32697;SDS011;19087;51.062;3.754;2023-07-29T10:56:36;0.10;;;0.10;;
32697;SDS011;19087;51.062;3.754;2023-07-29T11:01:42;0.10;;;0.10;;
32697;SDS011;19087;51.062;3.754;2023-07-29T11:09:57;0.10;;;0.10;;
32697;SDS011;19087;51.062;3.754;2023-07-29T11:15:47;0.10;;;0.10;;
32697;SDS011;19087;51.062;3.754;2023-07-29T11:18:15;0.10;;;0.10;;
32697;SDS011;19087;51.062;3.754;2023-07-29T11:20:41;0.10;;;0.10;;
32697;SDS011;19087;51.062;3.754;2023-07-29T11:23:07;0.10;;;0.10;;
32697;SDS011;19087;51.062;3.754;2023-07-29T11:25:32;0.00;;;0.00;;
32697;SDS011;19087;51.062;3.754;2023-07-29T11:28:01;0.00;;;0.00;;
32697;SDS011;19087;51.062;3.754;2023-07-29T11:30:27;0.00;;;0.00;;
32697;SDS011;19087;51.062;3.754;2023-07-29T11:32:54;0.00;;;0.00;;
32697;SDS011;19087;51.062;3.754;2023-07-29T11:35:21;0.00;;;0.00;;
32697;SDS011;19087;51.062;3.754;2023-07-29T11:37:48;0.08;;;0.08;;
32697;SDS011;19087;51.062;3.754;2023-07-29T11:40:16;0.00;;;0.00;;
32697;SDS011;19087;51.062;3.754;2023-07-29T11:42:43;0.00;;;0.00;;
32697;SDS011;19087;51.062;3.754;2023-07-29T11:45:09;0.00;;;0.00;;
32697;SDS011;19087;51.062;3.754;2023-07-29T11:47:36;0.08;;;0.08;;
32697;SDS011;19087;51.062;3.754;2023-07-29T11:50:03;0.00;;;0.00;;
32697;SDS011;19087;51.062;3.754;2023-07-29T11:52:31;0.08;;;0.08;;
32697;SDS011;19087;51.062;3.754;2023-07-29T11:55:01;0.00;;;0.00;;
32697;SDS011;19087;51.062;3.754;2023-07-29T11:57:28;0.10;;;0.10;;
32697;SDS011;19087;51.062;3.754;2023-07-29T11:59:55;0.00;;;0.00;;
32697;SDS011;19087;51.062;3.754;2023-07-29T12:02:20;0.08;;;0.08;;
32697;SDS011;19087;51.062;3.754;2023-07-29T12:04:48;0.00;;;0.00;;
32697;SDS011;19087;51.062;3.754;2023-07-29T12:07:16;0.00;;;0.00;;
32697;SDS011;19087;51.062;3.754;2023-07-29T12:09:42;0.00;;;0.00;;
32697;SDS011;19087;51.062;3.754;2023-07-29T12:12:10;0.10;;;0.10;;
32697;SDS011;19087;51.062;3.754;2023-07-29T12:14:42;0.10;;;0.10;;
32697;SDS011;19087;51.062;3.754;2023-07-29T12:17:11;0.10;;;0.10;;
32697;SDS011;19087;51.062;3.754;2023-07-29T12:19:38;0.10;;;0.10;;
32697;SDS011;19087;51.062;3.754;2023-07-29T12:22:06;0.00;;;0.00;;
32697;SDS011;19087;51.062;3.754;2023-07-29T12:24:34;0.10;;;0.10;;
32697;SDS011;19087;51.062;3.754;2023-07-29T12:27:01;0.08;;;0.08;;
32697;SDS011;19087;51.062;3.754;2023-07-29T12:29:27;0.10;;;0.10;;
32697;SDS011;19087;51.062;3.754;2023-07-29T12:31:58;0.00;;;0.00;;
32697;SDS011;19087;51.062;3.754;2023-07-29T12:34:25;0.00;;;0.00;;
32697;SDS011;19087;51.062;3.754;2023-07-29T12:36:53;0.00;;;0.00;;
32697;SDS011;19087;51.062;3.754;2023-07-29T12:39:22;0.00;;;0.00;;
32697;SDS011;19087;51.062;3.754;2023-07-29T12:41:54;0.00;;;0.00;;
32697;SDS011;19087;51.062;3.754;2023-07-29T12:44:25;0.00;;;0.00;;
32697;SDS011;19087;51.062;3.754;2023-07-29T12:46:55;0.00;;;0.00;;
32697;SDS011;19087;51.062;3.754;2023-07-29T12:49:21;0.00;;;0.00;;
32697;SDS011;19087;51.062;3.754;2023-07-29T12:51:47;0.00;;;0.00;;
32697;SDS011;19087;51.062;3.754;2023-07-29T12:54:13;0.00;;;0.00;;
32697;SDS011;19087;51.062;3.754;2023-07-29T12:56:39;0.00;;;0.00;;
32697;SDS011;19087;51.062;3.754;2023-07-29T12:59:06;0.00;;;0.00;;
32697;SDS011;19087;51.062;3.754;2023-07-29T13:01:32;0.00;;;0.00;;
32697;SDS011;19087;51.062;3.754;2023-07-29T13:03:59;0.00;;;0.00;;
32697;SDS011;19087;51.062;3.754;2023-07-29T13:06:24;0.00;;;0.00;;
32697;SDS011;19087;51.062;3.754;2023-07-29T13:08:50;0.00;;;0.00;;
32697;SDS011;19087;51.062;3.754;2023-07-29T13:11:16;0.10;;;0.10;;
32697;SDS011;19087;51.062;3.754;2023-07-29T13:13:42;0.00;;;0.00;;
32697;SDS011;19087;51.062;3.754;2023-07-29T13:16:08;0.00;;;0.00;;
32697;SDS011;19087;51.062;3.754;2023-07-29T13:18:34;0.00;;;0.00;;
32697;SDS011;19087;51.062;3.754;2023-07-29T13:21:00;0.10;;;0.10;;
32697;SDS011;19087;51.062;3.754;2023-07-29T13:23:26;0.00;;;0.00;;
32697;SDS011;19087;51.062;3.754;2023-07-29T13:25:53;0.00;;;0.00;;
32697;SDS011;19087;51.062;3.754;2023-07-29T13:28:18;0.00;;;0.00;;
32697;SDS011;19087;51.062;3.754;2023-07-29T13:30:44;0.00;;;0.00;;
32697;SDS011;19087;51.062;3.754;2023-07-29T13:33:10;0.00;;;0.00;;
32697;SDS011;19087;51.062;3.754;2023-07-29T13:35:36;0.00;;;0.00;;
32697;SDS011;19087;51.062;3.754;2023-07-29T13:38:02;0.00;;;0.00;;
32697;SDS011;19087;51.062;3.754;2023-07-29T13:40:28;0.05;;;0.05;;
32697;SDS011;19087;51.062;3.754;2023-07-29T13:42:54;0.00;;;0.00;;
32697;SDS011;19087;51.062;3.754;2023-07-29T13:45:20;0.08;;;0.08;;
32697;SDS011;19087;51.062;3.754;2023-07-29T13:47:46;0.00;;;0.00;;
32697;SDS011;19087;51.062;3.754;2023-07-29T13:50:13;0.05;;;0.05;;
32697;SDS011;19087;51.062;3.754;2023-07-29T13:52:38;0.00;;;0.00;;
32697;SDS011;19087;51.062;3.754;2023-07-29T13:55:04;0.10;;;0.10;;
32697;SDS011;19087;51.062;3.754;2023-07-29T13:57:31;0.00;;;0.00;;
32697;SDS011;19087;51.062;3.754;2023-07-29T13:59:57;0.00;;;0.00;;
32697;SDS011;19087;51.062;3.754;2023-07-29T14:02:26;0.10;;;0.10;;
32697;SDS011;19087;51.062;3.754;2023-07-29T14:04:52;0.10;;;0.10;;
32697;SDS011;19087;51.062;3.754;2023-07-29T14:07:18;0.10;;;0.10;;
32697;SDS011;19087;51.062;3.754;2023-07-29T14:09:44;0.10;;;0.10;;
32697;SDS011;19087;51.062;3.754;2023-07-29T14:12:12;0.10;;;0.10;;
32697;SDS011;19087;51.062;3.754;2023-07-29T14:14:40;0.10;;;0.10;;
32697;SDS011;19087;51.062;3.754;2023-07-29T14:17:07;0.10;;;0.10;;
32697;SDS011;19087;51.062;3.754;2023-07-29T14:19:36;0.10;;;0.10;;
32697;SDS011;19087;51.062;3.754;2023-07-29T14:22:11;0.10;;;0.10;;
32697;SDS011;19087;51.062;3.754;2023-07-29T14:24:36;0.10;;;0.10;;
32697;SDS011;19087;51.062;3.754;2023-07-29T14:27:04;0.10;;;0.10;;
32697;SDS011;19087;51.062;3.754;2023-07-29T14:29:31;0.10;;;0.10;;
32697;SDS011;19087;51.062;3.754;2023-07-29T14:31:57;0.10;;;0.10;;
32697;SDS011;19087;51.062;3.754;2023-07-29T14:34:22;0.10;;;0.10;;
32697;SDS011;19087;51.062;3.754;2023-07-29T14:36:48;0.10;;;0.10;;
32697;SDS011;19087;51.062;3.754;2023-07-29T14:39:14;0.00;;;0.00;;
32697;SDS011;19087;51.062;3.754;2023-07-29T14:41:46;0.00;;;0.00;;
32697;SDS011;19087;51.062;3.754;2023-07-29T14:44:12;0.08;;;0.08;;
32697;SDS011;19087;51.062;3.754;2023-07-29T14:46:38;0.00;;;0.00;;
32697;SDS011;19087;51.062;3.754;2023-07-29T14:49:05;0.00;;;0.00;;
32697;SDS011;19087;51.062;3.754;2023-07-29T14:51:33;0.00;;;0.00;;
32697;SDS011;19087;51.062;3.754;2023-07-29T14:54:00;0.00;;;0.00;;
32697;SDS011;19087;51.062;3.754;2023-07-29T14:56:28;0.00;;;0.00;;
32697;SDS011;19087;51.062;3.754;2023-07-29T14:58:58;0.00;;;0.00;;
32697;SDS011;19087;51.062;3.754;2023-07-29T15:01:25;0.10;;;0.10;;
32697;SDS011;19087;51.062;3.754;2023-07-29T15:03:56;0.00;;;0.00;;
32697;SDS011;19087;51.062;3.754;2023-07-29T15:06:24;0.10;;;0.10;;
32697;SDS011;19087;51.062;3.754;2023-07-29T15:08:50;0.00;;;0.00;;
32697;SDS011;19087;51.062;3.754;2023-07-29T15:11:16;0.10;;;0.10;;
32697;SDS011;19087;51.062;3.754;2023-07-29T15:13:42;0.00;;;0.00;;
32697;SDS011;19087;51.062;3.754;2023-07-29T15:16:07;0.00;;;0.00;;
32697;SDS011;19087;51.062;3.754;2023-07-29T15:18:33;0.00;;;0.00;;
32697;SDS011;19087;51.062;3.754;2023-07-29T15:20:59;0.00;;;0.00;;
32697;SDS011;19087;51.062;3.754;2023-07-29T15:23:27;0.00;;;0.00;;
32697;SDS011;19087;51.062;3.754;2023-07-29T15:25:53;0.00;;;0.00;;
32697;SDS011;19087;51.062;3.754;2023-07-29T15:28:19;0.05;;;0.05;;
32697;SDS011;19087;51.062;3.754;2023-07-29T15:30:44;0.10;;;0.10;;
32697;SDS011;19087;51.062;3.754;2023-07-29T15:33:11;0.00;;;0.00;;
32697;SDS011;19087;51.062;3.754;2023-07-29T15:35:37;0.10;;;0.10;;
32697;SDS011;19087;51.062;3.754;2023-07-29T15:38:04;0.00;;;0.00;;
32697;SDS011;19087;51.062;3.754;2023-07-29T15:40:30;0.00;;;0.00;;
32697;SDS011;19087;51.062;3.754;2023-07-29T15:42:56;0.00;;;0.00;;
32697;SDS011;19087;51.062;3.754;2023-07-29T15:45:22;0.00;;;0.00;;
32697;SDS011;19087;51.062;3.754;2023-07-29T15:47:49;0.00;;;0.00;;
32697;SDS011;19087;51.062;3.754;2023-07-29T15:50:15;0.00;;;0.00;;
32697;SDS011;19087;51.062;3.754;2023-07-29T15:52:41;0.00;;;0.00;;
32697;SDS011;19087;51.062;3.754;2023-07-29T15:55:08;0.10;;;0.10;;
32697;SDS011;19087;51.062;3.754;2023-07-29T15:57:34;0.00;;;0.00;;
32697;SDS011;19087;51.062;3.754;2023-07-29T16:00:00;0.10;;;0.10;;
32697;SDS011;19087;51.062;3.754;2023-07-29T16:02:26;0.10;;;0.10;;
32697;SDS011;19087;51.062;3.754;2023-07-29T16:04:51;0.00;;;0.00;;
32697;SDS011;19087;51.062;3.754;2023-07-29T16:07:17;0.00;;;0.00;;
32697;SDS011;19087;51.062;3.754;2023-07-29T16:09:51;0.10;;;0.10;;
32697;SDS011;19087;51.062;3.754;2023-07-29T16:14:46;0.00;;;0.00;;
32697;SDS011;19087;51.062;3.754;2023-07-29T16:17:12;0.10;;;0.10;;
32697;SDS011;19087;51.062;3.754;2023-07-29T16:20:00;0.05;;;0.05;;
32697;SDS011;19087;51.062;3.754;2023-07-29T16:22:27;0.10;;;0.10;;
32697;SDS011;19087;51.062;3.754;2023-07-29T16:24:53;0.10;;;0.10;;
32697;SDS011;19087;51.062;3.754;2023-07-29T16:27:19;0.05;;;0.05;;
32697;SDS011;19087;51.062;3.754;2023-07-29T16:29:48;0.10;;;0.10;;
32697;SDS011;19087;51.062;3.754;2023-07-29T16:32:14;0.10;;;0.10;;
32697;SDS011;19087;51.062;3.754;2023-07-29T16:34:41;0.10;;;0.10;;
32697;SDS011;19087;51.062;3.754;2023-07-29T16:37:10;0.10;;;0.10;;
32697;SDS011;19087;51.062;3.754;2023-07-29T16:39:37;0.10;;;0.10;;
32697;SDS011;19087;51.062;3.754;2023-07-29T16:42:03;0.10;;;0.10;;
32697;SDS011;19087;51.062;3.754;2023-07-29T16:44:29;0.10;;;0.10;;
32697;SDS011;19087;51.062;3.754;2023-07-29T16:46:56;0.10;;;0.10;;
32697;SDS011;19087;51.062;3.754;2023-07-29T16:49:21;0.10;;;0.10;;
32697;SDS011;19087;51.062;3.754;2023-07-29T16:51:48;0.00;;;0.00;;
32697;SDS011;19087;51.062;3.754;2023-07-29T16:54:14;0.10;;;0.10;;
32697;SDS011;19087;51.062;3.754;2023-07-29T16:56:44;0.08;;;0.08;;
32697;SDS011;19087;51.062;3.754;2023-07-29T16:59:12;0.00;;;0.00;;
32697;SDS011;19087;51.062;3.754;2023-07-29T17:01:38;0.00;;;0.00;;
32697;SDS011;19087;51.062;3.754;2023-07-29T17:04:04;0.00;;;0.00;;
32697;SDS011;19087;51.062;3.754;2023-07-29T17:06:30;0.10;;;0.10;;
32697;SDS011;19087;51.062;3.754;2023-07-29T17:08:55;0.10;;;0.10;;
32697;SDS011;19087;51.062;3.754;2023-07-29T17:11:23;0.03;;;0.03;;
32697;SDS011;19087;51.062;3.754;2023-07-29T17:13:49;0.10;;;0.10;;
32697;SDS011;19087;51.062;3.754;2023-07-29T17:16:15;0.10;;;0.10;;
32697;SDS011;19087;51.062;3.754;2023-07-29T17:18:42;0.10;;;0.10;;
32697;SDS011;19087;51.062;3.754;2023-07-29T17:21:10;0.10;;;0.10;;
32697;SDS011;19087;51.062;3.754;2023-07-29T17:23:36;0.00;;;0.00;;
32697;SDS011;19087;51.062;3.754;2023-07-29T17:26:01;0.10;;;0.10;;
32697;SDS011;19087;51.062;3.754;2023-07-29T17:28:29;0.08;;;0.08;;
32697;SDS011;19087;51.062;3.754;2023-07-29T17:30:55;0.03;;;0.03;;
32697;SDS011;19087;51.062;3.754;2023-07-29T17:33:20;0.10;;;0.10;;
32697;SDS011;19087;51.062;3.754;2023-07-29T17:35:46;0.10;;;0.10;;
32697;SDS011;19087;51.062;3.754;2023-07-29T17:38:13;0.10;;;0.10;;
32697;SDS011;19087;51.062;3.754;2023-07-29T17:40:39;0.10;;;0.10;;
32697;SDS011;19087;51.062;3.754;2023-07-29T17:43:05;0.10;;;0.10;;
32697;SDS011;19087;51.062;3.754;2023-07-29T17:45:31;0.10;;;0.10;;
32697;SDS011;19087;51.062;3.754;2023-07-29T17:47:57;0.10;;;0.10;;
32697;SDS011;19087;51.062;3.754;2023-07-29T17:50:24;0.10;;;0.10;;
32697;SDS011;19087;51.062;3.754;2023-07-29T17:52:50;0.10;;;0.10;;
32697;SDS011;19087;51.062;3.754;2023-07-29T17:55:16;0.10;;;0.10;;
32697;SDS011;19087;51.062;3.754;2023-07-29T17:57:41;0.10;;;0.10;;
32697;SDS011;19087;51.062;3.754;2023-07-29T18:00:08;0.10;;;0.10;;
32697;SDS011;19087;51.062;3.754;2023-07-29T18:02:34;0.08;;;0.08;;
32697;SDS011;19087;51.062;3.754;2023-07-29T18:05:03;0.10;;;0.10;;
32697;SDS011;19087;51.062;3.754;2023-07-29T18:07:30;0.10;;;0.10;;
32697;SDS011;19087;51.062;3.754;2023-07-29T18:09:55;0.10;;;0.10;;
32697;SDS011;19087;51.062;3.754;2023-07-29T18:12:27;0.10;;;0.10;;
32697;SDS011;19087;51.062;3.754;2023-07-29T18:14:53;0.10;;;0.10;;
32697;SDS011;19087;51.062;3.754;2023-07-29T18:17:18;0.10;;;0.10;;
32697;SDS011;19087;51.062;3.754;2023-07-29T18:19:44;0.10;;;0.10;;
32697;SDS011;19087;51.062;3.754;2023-07-29T18:22:10;0.10;;;0.10;;
32697;SDS011;19087;51.062;3.754;2023-07-29T18:24:36;0.10;;;0.10;;
32697;SDS011;19087;51.062;3.754;2023-07-29T18:27:02;0.10;;;0.10;;
32697;SDS011;19087;51.062;3.754;2023-07-29T18:29:28;0.10;;;0.10;;
32697;SDS011;19087;51.062;3.754;2023-07-29T18:31:54;0.10;;;0.10;;
32697;SDS011;19087;51.062;3.754;2023-07-29T18:34:21;0.10;;;0.10;;
32697;SDS011;19087;51.062;3.754;2023-07-29T18:36:48;0.08;;;0.08;;
32697;SDS011;19087;51.062;3.754;2023-07-29T18:39:15;0.10;;;0.10;;
32697;SDS011;19087;51.062;3.754;2023-07-29T18:41:41;0.10;;;0.10;;
32697;SDS011;19087;51.062;3.754;2023-07-29T18:44:07;0.10;;;0.10;;
32697;SDS011;19087;51.062;3.754;2023-07-29T18:46:33;0.10;;;0.10;;
32697;SDS011;19087;51.062;3.754;2023-07-29T18:48:58;0.10;;;0.10;;
32697;SDS011;19087;51.062;3.754;2023-07-29T18:51:24;0.10;;;0.10;;
32697;SDS011;19087;51.062;3.754;2023-07-29T18:53:51;0.10;;;0.10;;
32697;SDS011;19087;51.062;3.754;2023-07-29T18:56:17;0.10;;;0.10;;
32697;SDS011;19087;51.062;3.754;2023-07-29T18:58:42;0.10;;;0.10;;
32697;SDS011;19087;51.062;3.754;2023-07-29T19:01:08;0.10;;;0.10;;
32697;SDS011;19087;51.062;3.754;2023-07-29T19:03:35;0.10;;;0.10;;
32697;SDS011;19087;51.062;3.754;2023-07-29T19:06:01;0.10;;;0.10;;
32697;SDS011;19087;51.062;3.754;2023-07-29T19:08:27;0.10;;;0.10;;
32697;SDS011;19087;51.062;3.754;2023-07-29T19:10:54;0.20;;;0.20;;
32697;SDS011;19087;51.062;3.754;2023-07-29T19:13:19;0.10;;;0.10;;
32697;SDS011;19087;51.062;3.754;2023-07-29T19:15:49;0.10;;;0.10;;
32697;SDS011;19087;51.062;3.754;2023-07-29T19:18:19;0.10;;;0.10;;
32697;SDS011;19087;51.062;3.754;2023-07-29T19:20:52;0.10;;;0.10;;
32697;SDS011;19087;51.062;3.754;2023-07-29T19:23:21;0.10;;;0.10;;
32697;SDS011;19087;51.062;3.754;2023-07-29T19:25:47;0.10;;;0.10;;
32697;SDS011;19087;51.062;3.754;2023-07-29T19:28:15;0.15;;;0.15;;
32697;SDS011;19087;51.062;3.754;2023-07-29T19:30:41;0.20;;;0.20;;
32697;SDS011;19087;51.062;3.754;2023-07-29T19:33:06;0.10;;;0.10;;
32697;SDS011;19087;51.062;3.754;2023-07-29T19:35:32;0.10;;;0.10;;
32697;SDS011;19087;51.062;3.754;2023-07-29T19:37:58;0.10;;;0.10;;
32697;SDS011;19087;51.062;3.754;2023-07-29T19:40:23;0.10;;;0.10;;
32697;SDS011;19087;51.062;3.754;2023-07-29T19:42:51;0.10;;;0.10;;
32697;SDS011;19087;51.062;3.754;2023-07-29T19:45:21;0.10;;;0.10;;
32697;SDS011;19087;51.062;3.754;2023-07-29T19:47:47;0.20;;;0.20;;
32697;SDS011;19087;51.062;3.754;2023-07-29T19:50:13;0.10;;;0.10;;
32697;SDS011;19087;51.062;3.754;2023-07-29T19:52:39;0.10;;;0.10;;
32697;SDS011;19087;51.062;3.754;2023-07-29T19:55:05;0.20;;;0.20;;
32697;SDS011;19087;51.062;3.754;2023-07-29T19:57:31;0.10;;;0.10;;
32697;SDS011;19087;51.062;3.754;2023-07-29T19:59:57;0.10;;;0.10;;
32697;SDS011;19087;51.062;3.754;2023-07-29T20:02:22;0.20;;;0.20;;
32697;SDS011;19087;51.062;3.754;2023-07-29T20:04:52;0.10;;;0.10;;
32697;SDS011;19087;51.062;3.754;2023-07-29T20:07:19;0.10;;;0.10;;
32697;SDS011;19087;51.062;3.754;2023-07-29T20:09:45;0.20;;;0.20;;
32697;SDS011;19087;51.062;3.754;2023-07-29T20:12:11;0.10;;;0.10;;
32697;SDS011;19087;51.062;3.754;2023-07-29T20:14:37;0.10;;;0.10;;
32697;SDS011;19087;51.062;3.754;2023-07-29T20:17:03;0.10;;;0.10;;
32697;SDS011;19087;51.062;3.754;2023-07-29T20:19:29;0.15;;;0.15;;
32697;SDS011;19087;51.062;3.754;2023-07-29T20:21:54;0.20;;;0.20;;
32697;SDS011;19087;51.062;3.754;2023-07-29T20:24:20;0.20;;;0.20;;
32697;SDS011;19087;51.062;3.754;2023-07-29T20:26:45;0.10;;;0.10;;
32697;SDS011;19087;51.062;3.754;2023-07-29T20:29:11;0.13;;;0.13;;
32697;SDS011;19087;51.062;3.754;2023-07-29T20:31:37;0.10;;;0.10;;
32697;SDS011;19087;51.062;3.754;2023-07-29T20:34:03;0.10;;;0.10;;
32697;SDS011;19087;51.062;3.754;2023-07-29T20:36:28;0.10;;;0.10;;
32697;SDS011;19087;51.062;3.754;2023-07-29T20:38:55;0.20;;;0.20;;
32697;SDS011;19087;51.062;3.754;2023-07-29T20:41:21;0.20;;;0.20;;
32697;SDS011;19087;51.062;3.754;2023-07-29T20:43:49;0.20;;;0.20;;
32697;SDS011;19087;51.062;3.754;2023-07-29T20:46:17;0.20;;;0.20;;
32697;SDS011;19087;51.062;3.754;2023-07-29T20:48:47;0.20;;;0.20;;
32697;SDS011;19087;51.062;3.754;2023-07-29T20:51:17;0.10;;;0.10;;
32697;SDS011;19087;51.062;3.754;2023-07-29T20:53:43;0.10;;;0.10;;
32697;SDS011;19087;51.062;3.754;2023-07-29T20:56:10;0.10;;;0.10;;
32697;SDS011;19087;51.062;3.754;2023-07-29T20:58:41;0.20;;;0.20;;
32697;SDS011;19087;51.062;3.754;2023-07-29T21:01:09;0.20;;;0.20;;
32697;SDS011;19087;51.062;3.754;2023-07-29T21:03:35;0.10;;;0.10;;
32697;SDS011;19087;51.062;3.754;2023-07-29T21:06:01;0.10;;;0.10;;
32697;SDS011;19087;51.062;3.754;2023-07-29T21:08:30;0.10;;;0.10;;
32697;SDS011;19087;51.062;3.754;2023-07-29T21:10:58;0.20;;;0.20;;
32697;SDS011;19087;51.062;3.754;2023-07-29T21:13:24;0.20;;;0.20;;
32697;SDS011;19087;51.062;3.754;2023-07-29T21:18:19;0.20;;;0.20;;
32697;SDS011;19087;51.062;3.754;2023-07-29T21:20:45;0.10;;;0.10;;
32697;SDS011;19087;51.062;3.754;2023-07-29T21:23:11;0.10;;;0.10;;
32697;SDS011;19087;51.062;3.754;2023-07-29T21:25:37;0.10;;;0.10;;
32697;SDS011;19087;51.062;3.754;2023-07-29T21:28:04;0.20;;;0.20;;
32697;SDS011;19087;51.062;3.754;2023-07-29T21:30:30;0.10;;;0.10;;
32697;SDS011;19087;51.062;3.754;2023-07-29T21:32:57;0.20;;;0.20;;
32697;SDS011;19087;51.062;3.754;2023-07-29T21:35:24;0.10;;;0.10;;
32697;SDS011;19087;51.062;3.754;2023-07-29T21:37:49;0.20;;;0.20;;
32697;SDS011;19087;51.062;3.754;2023-07-29T21:40:15;0.20;;;0.20;;
32697;SDS011;19087;51.062;3.754;2023-07-29T21:42:41;0.20;;;0.20;;
32697;SDS011;19087;51.062;3.754;2023-07-29T21:45:09;0.15;;;0.15;;
32697;SDS011;19087;51.062;3.754;2023-07-29T21:47:35;0.20;;;0.20;;
32697;SDS011;19087;51.062;3.754;2023-07-29T21:50:01;0.10;;;0.10;;
32697;SDS011;19087;51.062;3.754;2023-07-29T21:52:31;0.20;;;0.20;;
32697;SDS011;19087;51.062;3.754;2023-07-29T21:54:57;0.20;;;0.20;;
32697;SDS011;19087;51.062;3.754;2023-07-29T21:57:23;0.20;;;0.20;;
32697;SDS011;19087;51.062;3.754;2023-07-29T21:59:49;0.20;;;0.20;;
32697;SDS011;19087;51.062;3.754;2023-07-29T22:02:14;0.10;;;0.10;;
32697;SDS011;19087;51.062;3.754;2023-07-29T22:04:42;0.20;;;0.20;;
32697;SDS011;19087;51.062;3.754;2023-07-29T22:07:08;0.20;;;0.20;;
32697;SDS011;19087;51.062;3.754;2023-07-29T22:09:34;0.20;;;0.20;;
32697;SDS011;19087;51.062;3.754;2023-07-29T22:12:01;0.20;;;0.20;;
32697;SDS011;19087;51.062;3.754;2023-07-29T22:14:27;0.20;;;0.20;;
32697;SDS011;19087;51.062;3.754;2023-07-29T22:16:53;0.20;;;0.20;;
32697;SDS011;19087;51.062;3.754;2023-07-29T22:19:19;0.10;;;0.10;;
32697;SDS011;19087;51.062;3.754;2023-07-29T22:21:46;0.20;;;0.20;;
32697;SDS011;19087;51.062;3.754;2023-07-29T22:24:16;0.20;;;0.20;;
32697;SDS011;19087;51.062;3.754;2023-07-29T22:26:44;0.13;;;0.13;;
32697;SDS011;19087;51.062;3.754;2023-07-29T22:29:13;0.20;;;0.20;;
32697;SDS011;19087;51.062;3.754;2023-07-29T22:31:39;0.10;;;0.10;;
32697;SDS011;19087;51.062;3.754;2023-07-29T22:34:05;0.20;;;0.20;;
32697;SDS011;19087;51.062;3.754;2023-07-29T22:36:33;0.20;;;0.20;;
32697;SDS011;19087;51.062;3.754;2023-07-29T22:38:58;0.20;;;0.20;;
32697;SDS011;19087;51.062;3.754;2023-07-29T22:41:24;0.20;;;0.20;;
32697;SDS011;19087;51.062;3.754;2023-07-29T22:43:50;0.20;;;0.20;;
32697;SDS011;19087;51.062;3.754;2023-07-29T22:46:15;0.20;;;0.20;;
32697;SDS011;19087;51.062;3.754;2023-07-29T22:48:41;0.20;;;0.20;;
32697;SDS011;19087;51.062;3.754;2023-07-29T22:51:07;0.20;;;0.20;;
32697;SDS011;19087;51.062;3.754;2023-07-29T22:53:33;0.20;;;0.20;;
32697;SDS011;19087;51.062;3.754;2023-07-29T22:55:58;0.20;;;0.20;;
32697;SDS011;19087;51.062;3.754;2023-07-29T22:58:24;0.20;;;0.20;;
32697;SDS011;19087;51.062;3.754;2023-07-29T23:00:54;0.10;;;0.10;;
32697;SDS011;19087;51.062;3.754;2023-07-29T23:03:21;0.20;;;0.20;;
32697;SDS011;19087;51.062;3.754;2023-07-29T23:05:47;0.20;;;0.20;;
32697;SDS011;19087;51.062;3.754;2023-07-29T23:08:13;0.20;;;0.20;;
32697;SDS011;19087;51.062;3.754;2023-07-29T23:10:39;0.20;;;0.20;;
32697;SDS011;19087;51.062;3.754;2023-07-29T23:13:05;0.15;;;0.15;;
32697;SDS011;19087;51.062;3.754;2023-07-29T23:15:38;0.10;;;0.10;;
32697;SDS011;19087;51.062;3.754;2023-07-29T23:18:06;0.10;;;0.10;;
32697;SDS011;19087;51.062;3.754;2023-07-29T23:20:33;0.20;;;0.20;;
32697;SDS011;19087;51.062;3.754;2023-07-29T23:22:59;0.10;;;0.10;;
32697;SDS011;19087;51.062;3.754;2023-07-29T23:25:26;0.10;;;0.10;;
32697;SDS011;19087;51.062;3.754;2023-07-29T23:27:52;0.20;;;0.20;;
32697;SDS011;19087;51.062;3.754;2023-07-29T23:30:17;0.20;;;0.20;;
32697;SDS011;19087;51.062;3.754;2023-07-29T23:32:43;0.13;;;0.13;;
32697;SDS011;19087;51.062;3.754;2023-07-29T23:35:10;0.10;;;0.10;;
32697;SDS011;19087;51.062;3.754;2023-07-29T23:37:36;0.20;;;0.20;;
32697;SDS011;19087;51.062;3.754;2023-07-29T23:40:03;0.17;;;0.17;;
32697;SDS011;19087;51.062;3.754;2023-07-29T23:42:29;0.20;;;0.20;;
32697;SDS011;19087;51.062;3.754;2023-07-29T23:44:55;0.10;;;0.10;;
32697;SDS011;19087;51.062;3.754;2023-07-29T23:47:21;0.20;;;0.20;;
32697;SDS011;19087;51.062;3.754;2023-07-29T23:49:47;0.20;;;0.20;;
32697;SDS011;19087;51.062;3.754;2023-07-29T23:52:12;0.20;;;0.20;;
32697;SDS011;19087;51.062;3.754;2023-07-29T23:54:38;0.20;;;0.20;;
32697;SDS011;19087;51.062;3.754;2023-07-29T23:57:04;0.20;;;0.20;;
32697;SDS011;19087;51.062;3.754;2023-07-29T23:59:30;0.10;;;0.10;;
